Miri Airport Miri MY
ICAO: WBGR
IATA:
Category: Medium
Scheduled Services:

Elevation: 59 ft
TransAlt. 11000 ft.

Airport Communications:
APP:122.9
ATIS:127
GND:121.9
TWR:123.3

WBGR Zoom In..

If you have problems with the map follow the link
https://www.worldairports.se/pages/airport.php?
ICAO=WBGR

Runways:

(A) RW 02 length 9006 ft width 197 ft
ILS 110.10 / hdg 24

(B) RW 20 length 9006 ft width 197 ft
---- / hdg 204

Location; WBGR
Day. 14 / Time. 09.00 Zulu
* QNH: 1006
* Temperature: 31° c. 87.8°f.
* Wind from: VRB° Speed 05 kn.
Dewpoint: 26° c.
Visibility: 10 km or more.
Clouds: Few 1600 ft.
Clouds: Broken 3000 ft.

WBGR 140900Z VRB05KT 9999 FEW016 BKN300 31/26 Q1006


Wind From VRB°
Speed 05 kn.

 
 
jpsmedia worldairports.se 2019   terms of use